Monday, November 20, 2017, 6:57 PM GMT
Back to Local

CYYG, Charlottetown, P. E. I.

Location: , , Canada Lat: 46.283
Local Time: 6:57 PM GMT (18:57 GMT) Lon: -63.133
Time Zone: GMT Elev: 157 ft

Show me the last for .
Show Coded

Time T Td Feel RH Dir Speed Gust Alt SLP Vis Weather Sky Remarks
2017-11-20 18:00 32 19 18 59 260° 20 26 29.48 29.49 15 OVC030 None
2017-11-20 17:00 32 21 19 63 240° 17 25 29.47 29.48 15 OVC029 None
2017-11-20 16:00 32 21 18 63 250° 21 26 29.47 29.48 15 OVC028 None
2017-11-20 15:00 32 21 18 63 250° 16 26 29.48 29.49 15 OVC028 None
2017-11-20 14:00 32 21 22 63 250° 14 - 29.48 29.49 15 OVC033 None
2017-11-20 13:00 32 23 18 68 260° 16 29 29.46 29.47 15 OVC024 None
2017-11-20 12:00 32 23 19 68 240° 15 24 29.44 29.45 15 OVC024 None
2017-11-20 11:00 32 25 19 74 250° 15 22 29.41 29.41 15 OVC023 None
2017-11-20 10:00 34 27 21 74 250° 18 25 29.38 29.39 15 OVC021 None
2017-11-20 09:00 34 28 21 80 250° 20 26 29.37 29.37 15 SCT014 OVC023 None
2017-11-20 08:53 36 30 24 80 260° 15 23 29.37 29.38 15 SCT015 OVC027 Pressure rising rapidly
2017-11-20 08:21 36 30 24 80 250° 13 24 29.34 29.35 15 BKN013 OVC023 Pressure rising rapidly
2017-11-20 08:00 37 32 26 80 250° 16 23 29.33 29.33 15 BKN008 OVC016 Pressure rising rapidly
2017-11-20 07:00 39 36 29 86 250° 13 23 29.29 29.29 15 BKN009 OVC015 None
2017-11-20 06:00 41 39 31 93 250° 14 22 29.25 29.26 15 BKN009 OVC024 Pressure rising rapidly
2017-11-20 05:48 43 39 34 86 260° 14 21 29.23 29.24 15 BKN009 OVC024 None
2017-11-20 05:34 43 41 33 93 260° 15 25 29.22 29.23 12 SCT010 OVC022 Pressure rising rapidly
2017-11-20 05:00 46 43 39 87 270° 13 20 29.19 29.19 8 -SHRA SCT012 OVC024 Pressure rising rapidly
2017-11-20 04:18 52 46 - 81 210° 20 29 29.13 29.14 10 -SHRA BKN024 OVC057 None
2017-11-20 04:00 52 46 - 81 210° 18 28 29.13 29.13 15 SCT023 BKN057 None
2017-11-20 03:00 54 50 - 87 200° 16 - 29.10 29.11 15 FEW023 OVC055 None
2017-11-20 02:00 55 52 - 87 190° 17 - 29.08 29.09 15 FEW022 OVC047 None
2017-11-20 01:00 57 55 - 93 180° 16 23 29.10 29.11 15 SCT017 OVC047 None
2017-11-20 00:51 57 55 - 93 180° 17 28 29.10 29.11 15 FEW005 BKN023 OVC057 None
2017-11-20 00:17 55 55 - 100 180° 22 35 29.10 29.11 10 SCT004 BKN023 BKN050 OVC120 None
2017-11-20 00:00 57 55 - 93 170° 21 28 29.11 29.11 10 -RA BKN004 BKN034 OVC055 None
2017-11-19 23:28 57 55 - 93 180° 24 32 29.11 29.12 10 -RA BKN004 BKN020 OVC064 None
2017-11-19 23:00 57 55 - 93 170° 22 31 29.12 29.13 10 -RA FEW005 BKN013 OVC056 None
2017-11-19 22:43 57 55 - 93 170° 24 33 29.12 29.13 10 -RA FEW005 OVC015 None
2017-11-19 22:07 57 55 - 93 160° 21 31 29.15 29.15 8 -RA BKN006 OVC017 Pressure falling rapidly
2017-11-19 22:00 57 55 - 93 160° 20 31 29.16 29.16 8 RA BKN007 OVC015 None
2017-11-19 21:00 55 55 - 100 160° 22 28 29.20 29.21 8 -RA FEW008 OVC025 None
2017-11-19 20:40 55 54 - 93 160° 17 28 29.21 29.22 7 -RA FEW006 OVC017 None
2017-11-19 20:00 55 54 - 93 160° 23 29 29.23 29.24 10 SCT007 OVC015 Pressure falling rapidly
2017-11-19 19:42 54 52 - 93 150° 21 26 29.25 29.26 8 -RA SCT007 OVC017 None
2017-11-19 19:00 52 50 - 93 150° 20 29 29.27 29.28 8 -RA BKN005 OVC012 Pressure falling rapidly

Support USWX by starting your Amazon purchase here.